createdAt,value
2018-06-22T00:00:26.364Z,0.83
2018-06-22T00:02:53.216Z,1.37
2018-06-22T00:05:20.186Z,2.10
2018-06-22T00:07:46.968Z,1.17
2018-06-22T00:10:13.741Z,1.77
2018-06-22T00:12:40.528Z,1.23
2018-06-22T00:15:07.309Z,2.03
2018-06-22T00:17:34.050Z,0.70
2018-06-22T00:20:00.754Z,0.93
2018-06-22T00:22:27.448Z,0.73
2018-06-22T00:24:54.268Z,1.70
2018-06-22T00:27:21.027Z,4.43
2018-06-22T00:29:47.904Z,0.97
2018-06-22T00:32:14.684Z,1.50
2018-06-22T00:34:41.414Z,1.03
2018-06-22T00:37:08.097Z,3.37
2018-06-22T00:39:34.987Z,3.80
2018-06-22T00:42:01.774Z,3.00
2018-06-22T00:44:28.530Z,1.23
2018-06-22T00:46:55.279Z,4.40
2018-06-22T00:49:22.034Z,1.93
2018-06-22T00:51:48.895Z,2.17
2018-06-22T00:54:16.780Z,1.13
2018-06-22T00:56:43.738Z,2.77
2018-06-22T00:59:11.105Z,0.80
2018-06-22T01:01:37.851Z,3.80
2018-06-22T01:04:04.502Z,1.83
2018-06-22T01:06:31.203Z,2.60
2018-06-22T01:08:57.850Z,2.33
2018-06-22T01:11:24.576Z,3.50
2018-06-22T01:13:51.367Z,3.40
2018-06-22T01:16:18.001Z,2.80
2018-06-22T01:18:44.817Z,0.87
2018-06-22T01:21:11.570Z,2.43
2018-06-22T01:23:38.287Z,1.93
2018-06-22T01:26:05.277Z,0.60
2018-06-22T01:28:32.025Z,3.13
2018-06-22T01:30:58.916Z,2.70
2018-06-22T01:33:25.760Z,1.93
2018-06-22T01:35:52.450Z,0.93
2018-06-22T01:38:19.233Z,2.37
2018-06-22T01:40:46.057Z,1.73
2018-06-22T01:43:12.831Z,1.57
2018-06-22T01:45:39.619Z,0.90
2018-06-22T01:48:06.397Z,2.40
2018-06-22T01:50:33.096Z,1.90
2018-06-22T01:52:59.881Z,0.77
2018-06-22T01:55:26.649Z,1.07
2018-06-22T01:57:53.438Z,0.67
2018-06-22T02:00:20.256Z,1.23
2018-06-22T02:02:46.988Z,1.80
2018-06-22T02:05:13.706Z,0.97
2018-06-22T02:07:40.422Z,1.37
2018-06-22T02:10:07.200Z,1.47
2018-06-22T02:12:34.020Z,2.50
2018-06-22T02:15:00.774Z,0.80
2018-06-22T02:17:27.498Z,0.93
2018-06-22T02:19:54.232Z,0.80
2018-06-22T02:22:20.974Z,1.17
2018-06-22T02:24:47.797Z,2.33
2018-06-22T02:27:14.551Z,2.43
2018-06-22T02:29:41.376Z,0.83
2018-06-22T02:32:08.100Z,0.87
2018-06-22T02:34:34.841Z,1.97
2018-06-22T02:37:01.676Z,4.13
2018-06-22T02:39:28.409Z,1.57
2018-06-22T02:41:55.144Z,4.20
2018-06-22T02:44:21.959Z,0.80
2018-06-22T02:46:48.730Z,1.53
2018-06-22T02:49:15.529Z,0.87
2018-06-22T02:51:42.192Z,2.10
2018-06-22T02:54:08.999Z,1.00
2018-06-22T02:56:35.827Z,1.57
2018-06-22T02:59:02.671Z,1.77
2018-06-22T03:01:29.538Z,0.50
2018-06-22T03:03:56.219Z,0.80
2018-06-22T03:06:23.047Z,1.13
2018-06-22T03:08:49.879Z,1.27
2018-06-22T03:11:16.679Z,0.83
2018-06-22T03:13:43.415Z,0.90
2018-06-22T03:16:11.600Z,2.17
2018-06-22T03:18:38.337Z,1.57
2018-06-22T03:21:05.153Z,1.07
2018-06-22T03:23:31.937Z,0.77
2018-06-22T03:25:58.699Z,1.13
2018-06-22T03:28:28.336Z,0.60
2018-06-22T03:30:56.344Z,1.13
2018-06-22T03:33:23.371Z,1.23
2018-06-22T03:35:50.171Z,1.53
2018-06-22T03:38:16.926Z,0.70
2018-06-22T03:40:43.638Z,1.77
2018-06-22T03:43:10.411Z,0.80
2018-06-22T03:45:37.442Z,1.00
2018-06-22T03:48:04.218Z,1.40
2018-06-22T03:50:31.066Z,0.80
2018-06-22T03:52:57.937Z,1.03
2018-06-22T03:55:25.011Z,1.50
2018-06-22T03:57:52.018Z,2.20
2018-06-22T04:00:18.874Z,1.07
2018-06-22T04:02:45.571Z,1.13
2018-06-22T04:05:12.275Z,1.83
2018-06-22T04:07:38.932Z,0.77
2018-06-22T04:10:05.808Z,1.00
2018-06-22T04:12:32.764Z,1.07
2018-06-22T04:14:59.598Z,0.97
2018-06-22T04:17:27.518Z,1.17
2018-06-22T04:19:54.202Z,1.17
2018-06-22T04:22:20.942Z,1.80
2018-06-22T04:24:47.844Z,0.53
2018-06-22T04:27:14.599Z,2.00
2018-06-22T04:29:41.514Z,0.87
2018-06-22T04:32:08.295Z,0.70
2018-06-22T04:34:35.314Z,0.77
2018-06-22T04:37:02.177Z,1.13
2018-06-22T04:39:28.907Z,1.20
2018-06-22T04:41:55.663Z,2.83
2018-06-22T04:44:22.435Z,0.70
2018-06-22T04:46:49.169Z,1.00
2018-06-22T04:49:15.921Z,1.33
2018-06-22T04:51:42.705Z,0.57
2018-06-22T04:54:09.502Z,1.40
2018-06-22T04:56:36.377Z,1.23
2018-06-22T04:59:03.339Z,2.40
2018-06-22T05:01:30.233Z,0.50
2018-06-22T05:03:56.911Z,0.70
2018-06-22T05:06:23.671Z,0.87
2018-06-22T05:08:50.371Z,0.97
2018-06-22T05:11:17.169Z,1.50
2018-06-22T05:13:44.097Z,0.70
2018-06-22T05:16:10.825Z,1.17
2018-06-22T05:18:37.591Z,2.30
2018-06-22T05:21:04.319Z,1.47
2018-06-22T05:23:31.117Z,1.67
2018-06-22T05:25:57.853Z,1.03
2018-06-22T05:28:24.717Z,1.70
2018-06-22T05:30:51.513Z,1.67
2018-06-22T05:33:18.294Z,0.70
2018-06-22T05:35:45.114Z,1.90
2018-06-22T05:38:11.844Z,0.60
2018-06-22T05:40:38.583Z,1.27
2018-06-22T05:43:05.398Z,3.00
2018-06-22T05:45:32.142Z,2.60
2018-06-22T05:47:58.933Z,0.90
2018-06-22T05:50:26.017Z,1.13
2018-06-22T05:52:52.748Z,1.60
2018-06-22T05:55:19.526Z,0.70
2018-06-22T05:57:46.424Z,2.90
2018-06-22T06:00:13.180Z,0.93
2018-06-22T06:02:40.018Z,1.80
2018-06-22T06:05:06.748Z,0.70
2018-06-22T06:07:33.494Z,4.00
2018-06-22T06:10:00.307Z,0.77
2018-06-22T06:12:27.310Z,2.07
2018-06-22T06:14:54.029Z,0.63
2018-06-22T06:17:20.812Z,0.60
2018-06-22T06:19:47.544Z,1.80
2018-06-22T06:22:14.311Z,1.53
2018-06-22T06:24:41.083Z,1.00
2018-06-22T06:27:07.802Z,0.93
2018-06-22T06:29:34.567Z,1.47
2018-06-22T06:32:01.367Z,1.00
2018-06-22T06:34:28.207Z,0.93
2018-06-22T06:36:54.925Z,1.00
2018-06-22T06:39:21.690Z,1.70
2018-06-22T06:41:48.405Z,2.33
2018-06-22T06:44:15.247Z,1.53
2018-06-22T06:46:42.016Z,3.57
2018-06-22T06:49:08.773Z,4.00
2018-06-22T06:51:35.673Z,1.13
2018-06-22T06:54:02.662Z,1.73
2018-06-22T06:56:29.407Z,1.80
2018-06-22T06:58:56.197Z,2.57
2018-06-22T07:01:22.983Z,2.00
2018-06-22T07:03:49.725Z,2.63
2018-06-22T07:06:16.473Z,0.63
2018-06-22T07:08:43.247Z,0.80
2018-06-22T07:11:10.036Z,1.10
2018-06-22T07:13:36.815Z,2.87
2018-06-22T07:16:03.620Z,2.63
2018-06-22T07:18:30.361Z,3.53
2018-06-22T07:20:57.060Z,0.53
2018-06-22T07:23:23.784Z,1.23
2018-06-22T07:25:50.485Z,6.77
2018-06-22T07:28:17.323Z,1.43
2018-06-22T07:30:44.085Z,4.70
2018-06-22T07:33:10.763Z,1.90
2018-06-22T07:35:37.525Z,1.20
2018-06-22T07:38:04.290Z,2.33
2018-06-22T07:40:31.133Z,1.37
2018-06-22T07:42:57.875Z,3.50
2018-06-22T07:45:24.660Z,3.03
2018-06-22T07:47:51.391Z,3.33
2018-06-22T07:50:18.124Z,1.63
2018-06-22T07:52:44.821Z,1.53
2018-06-22T07:55:43.879Z,3.17
2018-06-22T07:58:10.708Z,4.47
2018-06-22T08:00:37.469Z,2.90
2018-06-22T08:03:04.197Z,2.73
2018-06-22T08:05:30.907Z,3.37
2018-06-22T08:07:57.613Z,4.20
2018-06-22T08:10:24.325Z,2.20
2018-06-22T08:12:51.050Z,2.43
2018-06-22T08:15:17.766Z,3.07
2018-06-22T08:17:44.653Z,0.97
2018-06-22T08:20:11.366Z,2.30
2018-06-22T08:22:38.100Z,7.33
2018-06-22T08:25:07.863Z,1.43
2018-06-22T08:27:34.608Z,2.85
2018-06-22T08:30:01.350Z,2.27
2018-06-22T08:32:28.301Z,4.07
2018-06-22T08:34:55.128Z,2.83
2018-06-22T08:37:21.834Z,5.05
2018-06-22T08:39:48.701Z,4.63
2018-06-22T08:42:15.685Z,3.08
2018-06-22T08:44:42.415Z,5.33
2018-06-22T08:47:09.143Z,1.00
2018-06-22T08:49:35.909Z,1.00
2018-06-22T08:52:02.803Z,4.17
2018-06-22T08:54:29.514Z,2.97
2018-06-22T08:56:56.305Z,4.05
2018-06-22T08:59:23.128Z,5.00
2018-06-22T09:01:49.895Z,3.57
2018-06-22T09:04:16.820Z,5.90
2018-06-22T09:06:43.645Z,1.92
2018-06-22T09:09:10.546Z,6.17
2018-06-22T09:11:37.296Z,2.75
2018-06-22T09:14:04.084Z,5.42
2018-06-22T09:16:30.801Z,3.13
2018-06-22T09:18:57.511Z,3.50
2018-06-22T09:21:24.263Z,4.08
2018-06-22T09:23:51.050Z,6.12
2018-06-22T09:26:17.875Z,2.27
2018-06-22T09:28:44.623Z,2.98
2018-06-22T09:31:11.490Z,1.60
2018-06-22T09:33:38.226Z,5.67
2018-06-22T09:36:05.112Z,4.12
2018-06-22T09:38:31.898Z,3.33
2018-06-22T09:40:58.696Z,5.30
2018-06-22T09:43:25.476Z,4.87
2018-06-22T09:45:52.330Z,7.53
2018-06-22T09:48:19.147Z,3.70
2018-06-22T09:50:46.178Z,1.77
2018-06-22T09:53:13.110Z,4.00
2018-06-22T09:55:39.888Z,4.00
2018-06-22T09:58:06.873Z,2.45
2018-06-22T10:00:34.539Z,3.87
2018-06-22T10:03:01.662Z,4.00
2018-06-22T10:05:28.516Z,3.70
2018-06-22T10:07:55.324Z,2.17
2018-06-22T10:10:22.168Z,4.45
2018-06-22T10:12:49.126Z,4.50
2018-06-22T10:15:15.917Z,4.60
2018-06-22T10:17:42.711Z,3.62
2018-06-22T10:20:09.567Z,1.90
2018-06-22T10:22:36.368Z,2.70
2018-06-22T10:25:03.135Z,4.78
2018-06-22T10:27:29.926Z,3.33
2018-06-22T10:29:56.736Z,6.65
2018-06-22T10:32:23.527Z,2.90
2018-06-22T10:34:50.441Z,7.83
2018-06-22T10:37:17.290Z,5.25
2018-06-22T10:39:44.114Z,6.83
2018-06-22T10:42:11.117Z,5.47
2018-06-22T10:44:37.928Z,7.08
2018-06-22T10:47:04.624Z,5.92
2018-06-22T10:49:31.377Z,2.70
2018-06-22T10:51:58.334Z,4.78
2018-06-22T10:54:26.117Z,3.70
2018-06-22T10:56:52.991Z,4.42
2018-06-22T10:59:19.689Z,3.85
2018-06-22T11:01:46.409Z,5.17
2018-06-22T11:04:13.311Z,4.05
2018-06-22T11:06:40.110Z,3.70
2018-06-22T11:09:06.831Z,9.48
2018-06-22T11:11:33.610Z,4.30
2018-06-22T11:14:00.430Z,5.03
2018-06-22T11:16:27.145Z,2.40
2018-06-22T11:18:53.914Z,2.52
2018-06-22T11:21:20.744Z,3.50
2018-06-22T11:23:47.555Z,4.53
2018-06-22T11:26:14.276Z,4.95
2018-06-22T11:28:41.266Z,4.33
2018-06-22T11:31:08.098Z,7.37
2018-06-22T11:33:35.010Z,7.72
2018-06-22T11:36:01.771Z,4.22
2018-06-22T11:38:28.510Z,4.70
2018-06-22T11:40:55.309Z,3.47
2018-06-22T11:43:21.982Z,7.62
2018-06-22T11:45:48.751Z,2.60
2018-06-22T11:48:15.521Z,3.60
2018-06-22T11:50:42.296Z,4.67
2018-06-22T11:53:09.045Z,4.72
2018-06-22T11:55:35.759Z,6.67
2018-06-22T11:58:02.430Z,5.22
2018-06-22T12:00:29.372Z,3.58
2018-06-22T12:02:56.518Z,3.72
2018-06-22T12:05:23.216Z,4.50
2018-06-22T12:07:50.000Z,4.58
2018-06-22T12:10:16.787Z,6.05
2018-06-22T12:12:43.488Z,4.35
2018-06-22T12:15:10.169Z,6.65
2018-06-22T12:17:36.974Z,4.42
2018-06-22T12:20:03.629Z,4.95
2018-06-22T12:22:30.284Z,7.03
2018-06-22T12:24:57.077Z,4.20
2018-06-22T12:27:23.894Z,5.35
2018-06-22T12:29:50.703Z,6.35
2018-06-22T12:32:17.721Z,3.02
2018-06-22T12:34:44.477Z,6.00
2018-06-22T12:37:11.164Z,4.85
2018-06-22T12:39:37.944Z,4.87
2018-06-22T12:42:04.696Z,5.35
2018-06-22T12:44:31.418Z,8.75
2018-06-22T12:46:58.269Z,5.83
2018-06-22T12:49:25.025Z,5.62
2018-06-22T12:51:51.867Z,2.22
2018-06-22T12:54:18.711Z,3.87
2018-06-22T12:56:45.521Z,6.90
2018-06-22T12:59:12.500Z,9.23
2018-06-22T13:01:39.301Z,3.87
2018-06-22T13:04:06.233Z,4.37
2018-06-22T13:06:34.508Z,5.10
2018-06-22T13:09:01.275Z,7.53
2018-06-22T13:11:27.971Z,4.30
2018-06-22T13:13:54.813Z,4.20
2018-06-22T13:16:21.593Z,5.28
2018-06-22T13:18:48.419Z,4.95
2018-06-22T13:21:15.207Z,4.28
2018-06-22T13:23:41.909Z,3.37
2018-06-22T13:26:08.695Z,2.70
2018-06-22T13:28:35.627Z,6.47
2018-06-22T13:31:02.351Z,2.98
2018-06-22T13:33:29.183Z,6.53
2018-06-22T13:35:56.055Z,2.77
2018-06-22T13:38:22.911Z,4.78
2018-06-22T13:40:49.660Z,7.28
2018-06-22T13:43:16.389Z,6.05
2018-06-22T13:45:43.096Z,5.53
2018-06-22T13:48:09.850Z,3.45
2018-06-22T13:50:36.920Z,6.50
2018-06-22T13:53:03.667Z,4.75
2018-06-22T13:55:30.369Z,5.22
2018-06-22T13:57:57.052Z,5.83
2018-06-22T14:00:23.787Z,4.17
2018-06-22T14:02:50.490Z,4.37
2018-06-22T14:07:27.540Z,10.13
2018-06-22T14:09:54.242Z,5.55
2018-06-22T14:12:20.956Z,5.85
2018-06-22T14:14:47.695Z,8.58
2018-06-22T14:17:14.391Z,5.37
2018-06-22T14:19:41.144Z,5.10
2018-06-22T14:22:07.845Z,8.33
2018-06-22T14:24:34.644Z,7.08
2018-06-22T14:27:01.400Z,4.60
2018-06-22T14:29:28.188Z,4.92
2018-06-22T14:31:55.089Z,4.35
2018-06-22T14:34:21.896Z,5.47
2018-06-22T14:36:48.644Z,5.75
2018-06-22T14:39:15.354Z,7.67
2018-06-22T14:41:42.098Z,6.30
2018-06-22T14:44:08.835Z,6.65
2018-06-22T14:46:35.645Z,4.37
2018-06-22T14:49:02.363Z,5.85
2018-06-22T14:51:29.137Z,2.58
2018-06-22T14:54:01.284Z,8.33
2018-06-22T14:56:33.683Z,4.15
2018-06-22T14:59:06.007Z,4.40
2018-06-22T15:01:38.352Z,4.22
2018-06-22T15:04:10.673Z,6.47
2018-06-22T15:06:42.993Z,5.80
2018-06-22T15:09:10.467Z,3.12
2018-06-22T15:11:37.643Z,7.05
2018-06-22T15:14:04.446Z,3.75
2018-06-22T15:16:31.211Z,5.78
2018-06-22T15:18:57.950Z,5.42
2018-06-22T15:21:24.718Z,4.42
2018-06-22T15:23:51.669Z,3.87
2018-06-22T15:26:18.440Z,3.47
2018-06-22T15:28:45.240Z,4.78
2018-06-22T15:31:12.142Z,5.12
2018-06-22T15:33:44.513Z,9.08
2018-06-22T15:36:16.906Z,4.72
2018-06-22T15:38:49.108Z,5.53
2018-06-22T15:41:21.358Z,4.80
2018-06-22T15:43:53.778Z,5.15
2018-06-22T15:46:26.142Z,4.78
2018-06-22T15:51:04.353Z,4.30
2018-06-22T15:53:36.769Z,4.72
2018-06-22T15:56:07.793Z,6.00
2018-06-22T15:58:34.681Z,8.15
2018-06-22T16:01:01.431Z,6.25
2018-06-22T16:03:33.794Z,4.53
2018-06-22T16:06:00.657Z,7.22
2018-06-22T16:08:27.667Z,4.97
2018-06-22T16:10:54.490Z,6.60
2018-06-22T16:13:21.596Z,8.10
2018-06-22T16:15:53.824Z,7.03
2018-06-22T16:18:26.180Z,5.00
2018-06-22T16:20:58.524Z,8.28
2018-06-22T16:23:30.805Z,4.65
2018-06-22T16:26:03.121Z,4.70
2018-06-22T16:28:29.853Z,4.75
2018-06-22T16:30:56.792Z,5.87
2018-06-22T16:33:23.569Z,6.10
2018-06-22T16:35:50.445Z,9.08
2018-06-22T16:38:17.376Z,6.03
2018-06-22T16:40:44.168Z,5.85
2018-06-22T16:43:11.015Z,5.47
2018-06-22T16:45:37.890Z,10.55
2018-06-22T16:48:04.603Z,5.83
2018-06-22T16:50:31.997Z,5.90
2018-06-22T16:52:58.827Z,4.40
2018-06-22T16:55:25.568Z,9.48
2018-06-22T16:57:52.503Z,9.50
2018-06-22T17:00:19.373Z,8.98
2018-06-22T17:02:46.083Z,7.33
2018-06-22T17:05:12.874Z,6.78
2018-06-22T17:07:45.196Z,4.47
2018-06-22T17:10:17.498Z,9.33
2018-06-22T17:12:49.774Z,3.80
2018-06-22T17:15:22.096Z,9.30
2018-06-22T17:17:54.240Z,6.75
2018-06-22T17:20:21.048Z,3.92
2018-06-22T17:22:47.848Z,8.63
2018-06-22T17:25:14.676Z,6.83
2018-06-22T17:27:41.642Z,6.55
2018-06-22T17:30:08.388Z,4.17
2018-06-22T17:32:35.176Z,8.98
2018-06-22T17:35:01.913Z,5.92
2018-06-22T17:37:28.770Z,8.38
2018-06-22T17:39:55.577Z,4.92
2018-06-22T17:42:22.381Z,7.40
2018-06-22T17:44:49.162Z,11.48
2018-06-22T17:47:15.884Z,3.30
2018-06-22T17:49:46.020Z,5.75
2018-06-22T17:52:12.770Z,5.05
2018-06-22T17:54:39.704Z,7.47
2018-06-22T17:57:06.514Z,8.28
2018-06-22T17:59:38.890Z,7.25
2018-06-22T18:02:11.388Z,7.28
2018-06-22T18:06:46.657Z,6.45
2018-06-22T18:09:18.978Z,4.30
2018-06-22T18:11:51.267Z,6.97
2018-06-22T18:14:17.967Z,4.80
2018-06-22T18:16:49.987Z,8.65
2018-06-22T18:19:22.782Z,8.40
2018-06-22T18:21:57.772Z,4.53
2018-06-22T18:24:32.157Z,6.67
2018-06-22T18:27:03.396Z,7.33
2018-06-22T18:29:35.192Z,8.35
2018-06-22T18:32:11.842Z,5.40
2018-06-22T18:34:43.919Z,6.08
2018-06-22T18:37:12.348Z,6.40
2018-06-22T18:39:39.241Z,4.65
2018-06-22T18:42:06.133Z,6.17
2018-06-22T18:44:32.914Z,6.72
2018-06-22T18:46:59.752Z,7.45
2018-06-22T18:49:26.568Z,9.68
2018-06-22T18:51:58.773Z,8.33
2018-06-22T18:54:31.024Z,5.70
2018-06-22T18:57:03.477Z,8.03
2018-06-22T18:59:35.862Z,4.55
2018-06-22T19:02:08.209Z,6.03
2018-06-22T19:04:35.049Z,2.70
2018-06-22T19:07:01.882Z,4.72
2018-06-22T19:09:28.595Z,7.97
2018-06-22T19:11:55.417Z,6.90
2018-06-22T19:14:22.378Z,5.67
2018-06-22T19:16:49.165Z,3.77
2018-06-22T19:19:15.928Z,5.80
2018-06-22T19:21:42.719Z,10.25
2018-06-22T19:24:09.480Z,7.83
2018-06-22T19:26:36.281Z,8.80
2018-06-22T19:29:03.125Z,5.33
2018-06-22T19:31:29.941Z,5.30
2018-06-22T19:33:56.652Z,5.47
2018-06-22T19:36:23.410Z,6.33
2018-06-22T19:38:50.205Z,9.30
2018-06-22T19:41:17.060Z,5.50
2018-06-22T19:43:49.457Z,4.37
2018-06-22T19:46:21.751Z,7.92
2018-06-22T19:48:54.088Z,3.35
2018-06-22T19:51:26.373Z,8.63
2018-06-22T19:53:58.635Z,4.83
2018-06-22T19:56:25.429Z,6.12
2018-06-22T19:58:52.251Z,4.85
2018-06-22T20:01:19.071Z,5.37
2018-06-22T20:03:46.203Z,4.00
2018-06-22T20:06:12.914Z,3.87
2018-06-22T20:08:39.744Z,2.15
2018-06-22T20:11:06.617Z,3.72
2018-06-22T20:13:33.492Z,8.25
2018-06-22T20:16:00.298Z,3.40
2018-06-22T20:18:27.063Z,10.20
2018-06-22T20:20:53.904Z,6.10
2018-06-22T20:23:20.683Z,5.90
2018-06-22T20:25:47.473Z,4.67
2018-06-22T20:28:14.877Z,6.80
2018-06-22T20:30:41.759Z,6.47
2018-06-22T20:33:08.549Z,5.55
2018-06-22T20:35:40.944Z,5.20
2018-06-22T20:38:13.269Z,4.65
2018-06-22T20:40:45.685Z,5.05
2018-06-22T20:43:17.911Z,7.33
2018-06-22T20:45:49.153Z,2.35
2018-06-22T20:48:21.507Z,7.10
2018-06-22T20:50:48.331Z,5.47
2018-06-22T20:53:15.067Z,6.28
2018-06-22T20:55:41.776Z,5.62
2018-06-22T20:58:08.439Z,6.60
2018-06-22T21:00:35.195Z,4.58
2018-06-22T21:03:01.919Z,6.53
2018-06-22T21:05:28.691Z,6.08
2018-06-22T21:07:55.549Z,7.70
2018-06-22T21:10:22.254Z,9.70
2018-06-22T21:12:49.139Z,6.17
2018-06-22T21:15:15.808Z,6.25
2018-06-22T21:17:42.780Z,6.42
2018-06-22T21:20:09.671Z,7.22
2018-06-22T21:22:36.439Z,5.92
2018-06-22T21:25:03.188Z,7.58
2018-06-22T21:29:38.436Z,9.65
2018-06-22T21:32:10.612Z,3.73
2018-06-22T21:34:41.821Z,6.40
2018-06-22T21:37:14.168Z,6.00
2018-06-22T21:39:40.893Z,6.40
2018-06-22T21:42:08.341Z,7.53
2018-06-22T21:44:35.116Z,8.13
2018-06-22T21:47:01.814Z,6.20
2018-06-22T21:49:28.511Z,3.97
2018-06-22T21:51:55.299Z,3.50
2018-06-22T21:54:22.044Z,4.13
2018-06-22T21:56:48.810Z,3.07
2018-06-22T21:59:15.584Z,4.35
2018-06-22T22:01:42.368Z,7.20
2018-06-22T22:04:09.214Z,4.20
2018-06-22T22:06:35.983Z,5.17
2018-06-22T22:09:02.903Z,6.10
2018-06-22T22:12:04.329Z,6.92
2018-06-22T22:14:31.179Z,5.60
2018-06-22T22:16:57.944Z,3.87
2018-06-22T22:19:24.697Z,6.37
2018-06-22T22:21:51.409Z,3.37
2018-06-22T22:24:18.277Z,4.07
2018-06-22T22:26:45.129Z,4.77
2018-06-22T22:29:11.886Z,3.20
2018-06-22T22:31:38.858Z,4.87
2018-06-22T22:34:05.627Z,6.20
2018-06-22T22:36:32.427Z,2.57
2018-06-22T22:38:59.393Z,3.87
2018-06-22T22:41:26.176Z,3.87
2018-06-22T22:43:52.873Z,5.10
2018-06-22T22:46:19.689Z,2.87
2018-06-22T22:48:46.434Z,2.17
2018-06-22T22:51:13.142Z,4.67
2018-06-22T22:53:39.888Z,3.57
2018-06-22T22:56:06.621Z,4.17
2018-06-22T22:58:33.593Z,7.67
2018-06-22T23:01:00.354Z,7.83
2018-06-22T23:03:27.122Z,3.73
2018-06-22T23:05:53.958Z,4.47
2018-06-22T23:08:20.726Z,5.47
2018-06-22T23:10:47.586Z,5.27
2018-06-22T23:13:14.404Z,7.17
2018-06-22T23:15:41.301Z,3.03
2018-06-22T23:18:08.028Z,3.03
2018-06-22T23:20:34.815Z,2.67
2018-06-22T23:23:01.604Z,4.70
2018-06-22T23:25:28.311Z,7.27
2018-06-22T23:27:55.042Z,5.90
2018-06-22T23:30:21.797Z,4.83
2018-06-22T23:32:48.629Z,6.47
2018-06-22T23:35:18.984Z,4.43
2018-06-22T23:37:45.743Z,3.50
2018-06-22T23:40:12.492Z,6.83
2018-06-22T23:42:39.207Z,4.80
2018-06-22T23:45:06.044Z,6.73
2018-06-22T23:47:32.772Z,4.90
2018-06-22T23:49:59.584Z,4.00
2018-06-22T23:52:26.303Z,4.10
2018-06-22T23:54:53.142Z,3.43
2018-06-22T23:57:19.852Z,5.67
2018-06-22T23:59:46.605Z,8.10
